createdAt,value
2022-08-25T00:01:20.874Z,34.60
2022-08-25T00:04:11.027Z,35.80
2022-08-25T00:07:02.238Z,32.33
2022-08-25T00:09:48.433Z,33.80
2022-08-25T00:12:34.091Z,34.42
2022-08-25T00:15:23.511Z,34.55
2022-08-25T00:18:11.526Z,35.40
2022-08-25T00:21:06.159Z,35.30
2022-08-25T00:23:51.890Z,34.05
2022-08-25T00:26:43.865Z,35.65
2022-08-25T00:29:31.093Z,33.90
2022-08-25T00:32:18.406Z,35.85
2022-08-25T00:35:04.977Z,36.88
2022-08-25T00:37:50.981Z,34.10
2022-08-25T00:40:37.721Z,37.25
2022-08-25T00:43:25.199Z,35.42
2022-08-25T00:46:13.436Z,36.08
2022-08-25T00:49:25.306Z,34.38
2022-08-25T00:52:14.675Z,34.65
2022-08-25T00:55:15.347Z,33.78
2022-08-25T00:58:07.644Z,34.88
2022-08-25T01:00:56.798Z,31.92
2022-08-25T01:03:42.728Z,30.45
2022-08-25T01:06:33.774Z,31.63
2022-08-25T01:09:20.227Z,31.00
2022-08-25T01:12:06.378Z,30.42
2022-08-25T01:14:53.679Z,30.42
2022-08-25T01:17:48.685Z,26.70
2022-08-25T01:20:34.794Z,29.00
2022-08-25T01:23:22.849Z,28.02
2022-08-25T01:26:16.172Z,26.73
2022-08-25T01:29:21.651Z,25.88
2022-08-25T01:32:13.178Z,24.83
2022-08-25T01:34:58.919Z,25.10
2022-08-25T01:37:44.937Z,25.02
2022-08-25T01:40:32.048Z,23.38
2022-08-25T01:43:37.190Z,24.27
2022-08-25T01:46:23.230Z,21.92
2022-08-25T01:49:10.550Z,21.50
2022-08-25T01:52:32.068Z,22.35
2022-08-25T01:55:18.216Z,24.27
2022-08-25T01:58:04.091Z,21.52
2022-08-25T02:00:54.441Z,22.02
2022-08-25T02:03:42.658Z,20.08
2022-08-25T02:06:35.066Z,19.33
2022-08-25T02:09:21.257Z,19.15
2022-08-25T02:12:09.205Z,20.15
2022-08-25T02:14:54.883Z,18.42
2022-08-25T02:17:40.795Z,18.10
2022-08-25T02:20:26.861Z,17.80
2022-08-25T02:23:12.970Z,18.42
2022-08-25T02:25:58.737Z,17.25
2022-08-25T02:28:46.084Z,16.80
2022-08-25T02:31:32.132Z,15.82
2022-08-25T02:34:18.515Z,14.68
2022-08-25T02:37:04.556Z,17.02
2022-08-25T02:39:50.271Z,16.00
2022-08-25T02:42:36.278Z,15.85
2022-08-25T02:45:22.218Z,15.38
2022-08-25T02:48:08.116Z,15.65
2022-08-25T02:50:54.005Z,17.23
2022-08-25T02:53:42.340Z,16.50
2022-08-25T02:56:29.174Z,15.73
2022-08-25T02:59:17.479Z,16.17
2022-08-25T03:02:03.321Z,16.35
2022-08-25T03:04:49.119Z,16.00
2022-08-25T03:07:35.626Z,15.27
2022-08-25T03:10:21.221Z,16.98
2022-08-25T03:13:07.169Z,15.45
2022-08-25T03:15:52.753Z,15.55
2022-08-25T03:18:40.697Z,15.73
2022-08-25T03:21:27.636Z,15.45
2022-08-25T03:24:13.463Z,15.98
2022-08-25T03:26:59.378Z,15.15
2022-08-25T03:29:45.543Z,15.57
2022-08-25T03:32:31.304Z,15.70
2022-08-25T03:35:17.253Z,15.80
2022-08-25T03:38:03.540Z,15.35
2022-08-25T03:40:50.031Z,14.63
2022-08-25T03:43:35.479Z,14.07
2022-08-25T03:46:27.973Z,13.88
2022-08-25T03:49:16.680Z,14.60
2022-08-25T03:52:02.468Z,12.85
2022-08-25T03:54:48.773Z,12.52
2022-08-25T03:57:34.623Z,13.27
2022-08-25T04:00:21.283Z,12.65
2022-08-25T04:03:07.272Z,11.93
2022-08-25T04:05:52.849Z,11.55
2022-08-25T04:08:38.620Z,10.98
2022-08-25T04:11:24.949Z,10.65
2022-08-25T04:14:12.971Z,10.63
2022-08-25T04:17:01.765Z,10.02
2022-08-25T04:19:47.839Z,9.93
2022-08-25T04:22:36.760Z,10.68
2022-08-25T04:25:22.591Z,10.32
2022-08-25T04:28:09.492Z,10.02
2022-08-25T04:30:55.462Z,9.88
2022-08-25T04:33:42.089Z,9.30
2022-08-25T04:36:27.619Z,9.13
2022-08-25T04:39:13.545Z,8.90
2022-08-25T04:42:00.787Z,8.95
2022-08-25T04:44:46.952Z,8.48
2022-08-25T04:47:37.888Z,8.45
2022-08-25T04:50:23.164Z,8.63
2022-08-25T04:53:08.819Z,8.90
2022-08-25T04:55:54.756Z,8.98
2022-08-25T04:58:41.373Z,7.97
2022-08-25T05:01:27.752Z,8.15
2022-08-25T05:04:28.042Z,8.02
2022-08-25T05:07:14.633Z,8.20
2022-08-25T05:10:00.425Z,7.97
2022-08-25T05:12:47.084Z,7.97
2022-08-25T05:15:50.916Z,8.82
2022-08-25T05:18:36.951Z,8.07
2022-08-25T05:21:25.909Z,8.10
2022-08-25T05:24:11.819Z,7.93
2022-08-25T05:26:58.057Z,7.88
2022-08-25T05:29:43.988Z,8.18
2022-08-25T05:32:29.670Z,8.75
2022-08-25T05:35:16.188Z,8.77
2022-08-25T05:38:04.229Z,8.05
2022-08-25T05:41:16.116Z,7.72
2022-08-25T05:44:01.608Z,7.88
2022-08-25T05:46:47.645Z,7.63
2022-08-25T05:49:33.581Z,7.88
2022-08-25T05:52:20.293Z,8.40
2022-08-25T05:55:06.818Z,8.07
2022-08-25T05:57:52.585Z,7.93
2022-08-25T06:00:39.481Z,7.43
2022-08-25T06:03:25.275Z,8.23
2022-08-25T06:06:11.120Z,7.63
2022-08-25T06:08:56.868Z,8.07
2022-08-25T06:11:43.017Z,7.85
2022-08-25T06:14:28.516Z,8.13
2022-08-25T06:17:14.402Z,7.65
2022-08-25T06:20:00.442Z,7.38
2022-08-25T06:22:46.683Z,7.47
2022-08-25T06:25:33.844Z,7.63
2022-08-25T06:28:20.199Z,7.57
2022-08-25T06:31:06.356Z,8.18
2022-08-25T06:33:52.965Z,7.25
2022-08-25T06:36:38.925Z,7.15
2022-08-25T06:39:24.421Z,8.43
2022-08-25T06:42:10.571Z,8.00
2022-08-25T06:44:55.840Z,7.28
2022-08-25T06:47:41.799Z,7.05
2022-08-25T06:50:27.534Z,7.65
2022-08-25T06:53:13.870Z,6.97
2022-08-25T06:56:03.359Z,5.63
2022-08-25T06:58:51.726Z,6.20
2022-08-25T07:01:37.782Z,5.80
2022-08-25T07:04:24.296Z,6.32
2022-08-25T07:07:11.997Z,5.28
2022-08-25T07:09:57.463Z,5.70
2022-08-25T07:12:43.266Z,5.22
2022-08-25T07:15:28.952Z,5.60
2022-08-25T07:18:14.376Z,4.63
2022-08-25T07:21:00.585Z,4.88
2022-08-25T07:23:46.285Z,5.22
2022-08-25T07:26:38.120Z,5.78
2022-08-25T07:29:33.729Z,4.80
2022-08-25T07:32:19.790Z,3.95
2022-08-25T07:35:15.936Z,4.72
2022-08-25T07:38:06.627Z,3.80
2022-08-25T07:41:02.460Z,4.60
2022-08-25T07:43:48.552Z,4.85
2022-08-25T07:46:36.190Z,5.30
2022-08-25T07:49:24.247Z,4.28
2022-08-25T07:52:09.750Z,4.95
2022-08-25T07:54:55.745Z,4.35
2022-08-25T07:57:42.225Z,3.55
2022-08-25T08:00:30.184Z,3.85
2022-08-25T08:03:29.399Z,4.13
2022-08-25T08:06:24.034Z,4.53
2022-08-25T08:09:09.735Z,4.20
2022-08-25T08:11:55.554Z,3.80
2022-08-25T08:14:45.091Z,3.78
2022-08-25T08:17:32.060Z,4.15
2022-08-25T08:20:17.809Z,3.78
2022-08-25T08:23:08.907Z,3.53
2022-08-25T08:25:55.457Z,3.45
2022-08-25T08:28:43.477Z,3.35
2022-08-25T08:31:29.456Z,3.13
2022-08-25T08:34:15.982Z,3.20
2022-08-25T08:37:02.049Z,3.28
2022-08-25T08:39:48.195Z,3.60
2022-08-25T08:43:06.426Z,3.35
2022-08-25T08:45:53.757Z,2.60
2022-08-25T08:48:54.325Z,2.97
2022-08-25T08:51:53.310Z,3.13
2022-08-25T08:54:42.496Z,3.63
2022-08-25T08:57:29.745Z,3.15
2022-08-25T09:00:17.871Z,2.85
2022-08-25T09:03:12.011Z,3.03
2022-08-25T09:06:03.577Z,2.92
2022-08-25T09:08:55.577Z,3.10
2022-08-25T09:11:54.164Z,2.78
2022-08-25T09:15:12.677Z,3.28
2022-08-25T09:18:18.210Z,3.35
2022-08-25T09:21:31.318Z,3.72
2022-08-25T09:25:18.741Z,3.33
2022-08-25T09:28:21.342Z,2.58
2022-08-25T09:31:42.601Z,3.20
2022-08-25T09:34:34.317Z,3.08
2022-08-25T09:37:21.135Z,3.30
2022-08-25T09:40:07.351Z,2.78
2022-08-25T09:42:57.926Z,2.70
2022-08-25T09:45:47.836Z,2.30
2022-08-25T09:48:43.846Z,2.30
2022-08-25T09:51:42.616Z,2.70
2022-08-25T09:54:34.041Z,2.90
2022-08-25T09:57:36.874Z,2.53
2022-08-25T10:00:31.061Z,2.33
2022-08-25T10:03:24.586Z,2.67
2022-08-25T10:06:15.910Z,2.33
2022-08-25T10:11:52.678Z,2.92
2022-08-25T10:14:44.289Z,2.47
2022-08-25T10:17:33.664Z,2.20
2022-08-25T10:20:22.853Z,2.40
2022-08-25T10:23:14.029Z,2.28
2022-08-25T10:26:04.852Z,2.40
2022-08-25T10:29:09.184Z,2.30
2022-08-25T10:32:11.933Z,2.30
2022-08-25T10:34:59.638Z,2.20
2022-08-25T10:37:51.362Z,2.05
2022-08-25T10:40:51.077Z,2.05
2022-08-25T10:44:07.443Z,2.15
2022-08-25T10:47:17.812Z,2.28
2022-08-25T10:50:23.788Z,2.50
2022-08-25T10:53:45.228Z,2.08
2022-08-25T10:56:40.923Z,2.00
2022-08-25T10:59:51.897Z,2.10
2022-08-25T11:03:12.683Z,2.25
2022-08-25T11:06:05.507Z,2.40
2022-08-25T11:09:00.180Z,2.45
2022-08-25T11:11:53.952Z,2.72
2022-08-25T11:14:57.144Z,2.38
2022-08-25T11:17:57.944Z,2.72
2022-08-25T11:21:09.665Z,2.45
2022-08-25T11:24:26.514Z,3.20
2022-08-25T11:27:24.328Z,2.63
2022-08-25T11:30:14.137Z,2.63
2022-08-25T11:33:00.137Z,2.50
2022-08-25T11:35:55.048Z,2.63
2022-08-25T11:39:12.490Z,2.80
2022-08-25T11:42:05.761Z,2.03
2022-08-25T11:45:27.313Z,2.67
2022-08-25T11:48:18.969Z,2.05
2022-08-25T11:54:12.793Z,2.90
2022-08-25T11:57:17.928Z,2.85
2022-08-25T12:00:12.325Z,2.33
2022-08-25T12:03:01.402Z,2.30
2022-08-25T12:05:52.565Z,2.60
2022-08-25T12:09:00.501Z,2.45
2022-08-25T12:11:58.163Z,2.70
2022-08-25T12:14:45.752Z,2.70
2022-08-25T12:17:39.671Z,3.10
2022-08-25T12:20:54.918Z,2.63
2022-08-25T12:24:02.859Z,2.40
2022-08-25T12:26:54.585Z,2.30
2022-08-25T12:32:45.633Z,2.25
2022-08-25T12:35:53.559Z,2.10
2022-08-25T12:38:47.315Z,2.20
2022-08-25T12:42:11.882Z,2.03
2022-08-25T12:45:25.678Z,2.28
2022-08-25T12:48:31.788Z,2.63
2022-08-25T12:51:23.200Z,2.03
2022-08-25T13:00:07.262Z,2.40
2022-08-25T13:03:27.498Z,2.40
2022-08-25T13:06:40.618Z,2.33
2022-08-25T13:09:48.246Z,2.17
2022-08-25T13:12:47.197Z,2.50
2022-08-25T13:15:45.086Z,2.35
2022-08-25T13:18:38.791Z,2.35
2022-08-25T13:21:37.526Z,2.28
2022-08-25T13:24:40.707Z,2.47
2022-08-25T13:27:28.096Z,2.60
2022-08-25T13:30:24.388Z,2.05
2022-08-25T13:33:21.939Z,2.20
2022-08-25T13:36:34.965Z,2.40
2022-08-25T13:39:45.993Z,2.33
2022-08-25T13:42:32.599Z,2.55
2022-08-25T13:45:26.254Z,2.53
2022-08-25T13:48:20.884Z,2.45
2022-08-25T13:51:31.356Z,2.53
2022-08-25T13:54:39.164Z,2.50
2022-08-25T13:57:30.584Z,2.30
2022-08-25T14:00:31.897Z,2.65
2022-08-25T14:03:52.664Z,2.30
2022-08-25T14:06:39.151Z,2.40
2022-08-25T14:09:28.083Z,2.38
2022-08-25T14:12:47.828Z,2.65
2022-08-25T14:18:31.031Z,3.00
2022-08-25T14:21:22.599Z,2.67
2022-08-25T14:24:08.412Z,2.38
2022-08-25T14:26:56.774Z,2.60
2022-08-25T14:29:42.673Z,2.30
2022-08-25T14:32:28.659Z,2.63
2022-08-25T14:35:14.003Z,2.60
2022-08-25T14:38:09.298Z,2.33
2022-08-25T14:40:55.179Z,2.80
2022-08-25T14:43:45.276Z,2.60
2022-08-25T14:46:33.992Z,2.63
2022-08-25T14:49:24.659Z,2.78
2022-08-25T14:52:20.020Z,2.70
2022-08-25T14:55:10.150Z,2.70
2022-08-25T14:57:55.529Z,2.35
2022-08-25T15:00:44.553Z,2.53
2022-08-25T15:03:38.168Z,2.28
2022-08-25T15:06:24.007Z,2.35
2022-08-25T15:09:12.186Z,2.47
2022-08-25T15:11:58.298Z,2.50
2022-08-25T15:14:43.840Z,2.22
2022-08-25T15:17:31.367Z,2.22
2022-08-25T15:20:17.141Z,2.15
2022-08-25T15:23:03.345Z,2.65
2022-08-25T15:25:52.605Z,2.83
2022-08-25T15:28:42.672Z,2.70
2022-08-25T15:31:30.364Z,2.53
2022-08-25T15:34:16.704Z,2.90
2022-08-25T15:37:14.784Z,2.90
2022-08-25T15:40:00.553Z,2.58
2022-08-25T15:42:46.802Z,3.10
2022-08-25T15:45:33.022Z,2.70
2022-08-25T15:48:19.054Z,2.78
2022-08-25T15:51:05.393Z,2.72
2022-08-25T15:53:50.998Z,3.15
2022-08-25T15:56:37.121Z,2.50
2022-08-25T15:59:23.951Z,2.30
2022-08-25T16:02:15.094Z,2.40
2022-08-25T16:05:01.523Z,2.53
2022-08-25T16:07:51.771Z,2.22
2022-08-25T16:10:40.518Z,2.47
2022-08-25T16:13:26.247Z,2.67
2022-08-25T16:16:12.275Z,2.63
2022-08-25T16:18:58.419Z,2.55
2022-08-25T16:21:47.155Z,1.95
2022-08-25T16:24:34.219Z,2.42
2022-08-25T16:27:24.438Z,1.92
2022-08-25T16:30:17.512Z,2.65
2022-08-25T16:33:03.559Z,2.28
2022-08-25T16:35:51.684Z,2.17
2022-08-25T16:38:39.244Z,2.53
2022-08-25T16:41:33.860Z,2.10
2022-08-25T16:44:22.384Z,2.42
2022-08-25T16:47:08.918Z,2.10
2022-08-25T16:49:54.833Z,2.40
2022-08-25T16:52:59.304Z,2.58
2022-08-25T16:55:45.516Z,2.25
2022-08-25T16:58:33.111Z,2.50
2022-08-25T17:01:18.902Z,2.42
2022-08-25T17:04:05.094Z,2.20
2022-08-25T17:06:51.883Z,2.25
2022-08-25T17:09:38.081Z,2.15
2022-08-25T17:12:25.405Z,2.35
2022-08-25T17:15:11.047Z,2.45
2022-08-25T17:17:58.623Z,2.30
2022-08-25T17:20:45.392Z,2.08
2022-08-25T17:23:32.461Z,2.13
2022-08-25T17:26:19.921Z,2.08
2022-08-25T17:29:13.930Z,2.40
2022-08-25T17:32:00.281Z,2.13
2022-08-25T17:34:46.453Z,2.25
2022-08-25T17:37:31.907Z,1.95
2022-08-25T17:40:17.527Z,2.10
2022-08-25T17:43:03.759Z,2.10
2022-08-25T17:45:49.665Z,1.88
2022-08-25T17:48:37.036Z,2.22
2022-08-25T17:51:23.455Z,2.10
2022-08-25T17:54:09.325Z,1.95
2022-08-25T17:56:55.307Z,2.13
2022-08-25T17:59:40.661Z,2.33
2022-08-25T18:02:26.536Z,2.03
2022-08-25T18:05:16.237Z,2.03
2022-08-25T18:08:04.366Z,2.38
2022-08-25T18:10:57.142Z,2.33
2022-08-25T18:13:43.247Z,2.00
2022-08-25T18:16:29.035Z,2.50
2022-08-25T18:19:15.726Z,2.53
2022-08-25T18:22:04.337Z,2.80
2022-08-25T18:24:49.958Z,2.20
2022-08-25T18:27:36.872Z,2.67
2022-08-25T18:30:24.214Z,2.50
2022-08-25T18:33:12.701Z,2.30
2022-08-25T18:35:59.123Z,2.15
2022-08-25T18:39:02.654Z,2.17
2022-08-25T18:41:48.254Z,2.30
2022-08-25T18:44:34.329Z,2.90
2022-08-25T18:47:20.312Z,4.05
2022-08-25T18:50:07.933Z,8.38
2022-08-25T18:52:55.231Z,9.02
2022-08-25T18:55:43.155Z,9.30
2022-08-25T18:58:29.492Z,9.65
2022-08-25T19:01:17.146Z,13.90
2022-08-25T19:04:04.822Z,16.27
2022-08-25T19:06:51.775Z,17.17
2022-08-25T19:09:38.031Z,18.77
2022-08-25T19:12:23.843Z,19.88
2022-08-25T19:15:10.175Z,21.42
2022-08-25T19:17:57.131Z,22.27
2022-08-25T19:20:44.960Z,21.55
2022-08-25T19:23:32.625Z,19.30
2022-08-25T19:26:20.272Z,20.00
2022-08-25T19:29:11.055Z,24.42
2022-08-25T19:31:57.551Z,21.52
2022-08-25T19:34:51.439Z,20.80
2022-08-25T19:37:37.350Z,22.48
2022-08-25T19:40:26.269Z,24.35
2022-08-25T19:43:13.473Z,26.40
2022-08-25T19:46:01.688Z,27.48
2022-08-25T19:48:49.193Z,28.92
2022-08-25T19:51:38.863Z,30.38
2022-08-25T19:54:36.578Z,26.88
2022-08-25T19:57:28.194Z,30.52
2022-08-25T20:00:31.470Z,29.63
2022-08-25T20:03:20.487Z,27.95
2022-08-25T20:06:08.051Z,32.17
2022-08-25T20:08:58.995Z,31.45
2022-08-25T20:11:46.632Z,33.30
2022-08-25T20:14:35.216Z,36.05
2022-08-25T20:17:23.896Z,32.30
2022-08-25T20:20:16.112Z,32.38
2022-08-25T20:23:20.749Z,32.55
2022-08-25T20:26:09.175Z,33.33
2022-08-25T20:28:56.132Z,32.75
2022-08-25T20:31:41.629Z,34.63
2022-08-25T20:34:29.984Z,37.08
2022-08-25T20:37:18.413Z,35.13
2022-08-25T20:40:07.935Z,34.75
2022-08-25T20:42:57.523Z,35.15
2022-08-25T20:45:43.598Z,33.13
2022-08-25T20:48:29.496Z,33.15
2022-08-25T20:51:15.545Z,33.55
2022-08-25T20:54:04.396Z,34.35
2022-08-25T20:56:50.546Z,32.85
2022-08-25T20:59:36.874Z,32.97
2022-08-25T21:02:24.024Z,34.42
2022-08-25T21:05:09.792Z,37.75
2022-08-25T21:07:55.460Z,37.05
2022-08-25T21:10:41.435Z,35.03
2022-08-25T21:13:27.056Z,37.42
2022-08-25T21:16:12.557Z,38.55
2022-08-25T21:19:01.005Z,37.30
2022-08-25T21:21:47.479Z,38.70
2022-08-25T21:24:33.505Z,36.60
2022-08-25T21:27:19.618Z,38.15
2022-08-25T21:30:06.539Z,35.78
2022-08-25T21:32:53.935Z,35.13
2022-08-25T21:35:41.209Z,38.42
2022-08-25T21:38:29.367Z,37.25
2022-08-25T21:41:21.413Z,34.95
2022-08-25T21:44:07.906Z,36.78
2022-08-25T21:46:54.205Z,39.95
2022-08-25T21:49:40.447Z,37.53
2022-08-25T21:52:26.275Z,37.20
2022-08-25T21:55:15.807Z,35.75
2022-08-25T21:58:01.735Z,33.22
2022-08-25T22:00:47.598Z,31.83
2022-08-25T22:03:34.800Z,30.83
2022-08-25T22:06:24.279Z,30.80
2022-08-25T22:09:12.832Z,26.95
2022-08-25T22:12:00.092Z,25.40
2022-08-25T22:14:45.770Z,23.40
2022-08-25T22:17:33.485Z,22.85
2022-08-25T22:20:19.605Z,22.67
2022-08-25T22:23:06.512Z,21.85
2022-08-25T22:25:52.244Z,21.08
2022-08-25T22:28:38.000Z,19.92
2022-08-25T22:31:24.535Z,20.25
2022-08-25T22:34:10.148Z,20.95
2022-08-25T22:36:59.497Z,20.95
2022-08-25T22:39:46.754Z,23.90
2022-08-25T22:42:32.815Z,24.00
2022-08-25T22:45:20.815Z,25.67
2022-08-25T22:48:06.555Z,23.83
2022-08-25T22:50:52.462Z,22.77
2022-08-25T22:53:39.727Z,24.35
2022-08-25T22:56:30.867Z,25.15
2022-08-25T22:59:16.859Z,25.02
2022-08-25T23:02:03.885Z,24.42
2022-08-25T23:04:49.921Z,21.42
2022-08-25T23:07:37.786Z,21.80
2022-08-25T23:10:25.737Z,20.35
2022-08-25T23:13:11.446Z,18.02
2022-08-25T23:16:12.254Z,18.95
2022-08-25T23:18:58.853Z,17.90
2022-08-25T23:22:03.705Z,17.63
2022-08-25T23:24:53.416Z,15.65
2022-08-25T23:27:39.254Z,15.63
2022-08-25T23:30:27.235Z,16.50
2022-08-25T23:33:18.673Z,16.13
2022-08-25T23:36:10.595Z,14.95
2022-08-25T23:38:56.358Z,14.07
2022-08-25T23:41:42.744Z,14.85
2022-08-25T23:44:28.708Z,14.20
2022-08-25T23:47:14.737Z,12.90
2022-08-25T23:50:00.749Z,11.88
2022-08-25T23:52:46.382Z,12.43
2022-08-25T23:55:33.661Z,11.38
2022-08-25T23:58:19.814Z,10.85
